createdAt,value
2023-10-07T00:01:38.874Z,88.80
2023-10-07T00:04:11.237Z,88.65
2023-10-07T00:06:39.338Z,88.97
2023-10-07T00:09:11.829Z,88.89
2023-10-07T00:11:39.214Z,88.99
2023-10-07T00:14:11.280Z,89.31
2023-10-07T00:16:39.496Z,89.44
2023-10-07T00:19:08.482Z,88.68
2023-10-07T00:21:59.799Z,88.33
2023-10-07T00:24:36.394Z,89.14
2023-10-07T00:27:05.670Z,89.30
2023-10-07T00:29:52.874Z,89.66
2023-10-07T00:32:20.255Z,90.08
2023-10-07T00:34:48.014Z,90.33
2023-10-07T00:37:17.031Z,90.55
2023-10-07T00:39:44.780Z,90.46
2023-10-07T00:42:12.099Z,90.73
2023-10-07T00:44:40.481Z,90.86
2023-10-07T00:47:07.936Z,90.77
2023-10-07T00:49:51.848Z,90.47
2023-10-07T00:52:26.458Z,90.64
2023-10-07T00:55:01.536Z,91.14
2023-10-07T00:57:34.774Z,91.28
2023-10-07T01:00:24.548Z,91.64
2023-10-07T01:02:58.917Z,91.77
2023-10-07T01:05:34.413Z,91.90
2023-10-07T01:08:01.810Z,91.75
2023-10-07T01:10:33.128Z,91.95
2023-10-07T01:13:04.471Z,91.69
2023-10-07T01:15:35.910Z,91.59
2023-10-07T01:18:06.917Z,92.04
2023-10-07T01:20:54.930Z,92.03
2023-10-07T01:23:25.775Z,91.72
2023-10-07T01:25:54.591Z,91.66
2023-10-07T01:28:22.810Z,92.74
2023-10-07T01:31:09.113Z,92.52
2023-10-07T01:33:40.498Z,92.25
2023-10-07T01:36:17.378Z,92.18
2023-10-07T01:38:52.882Z,92.12
2023-10-07T01:41:29.116Z,92.17
2023-10-07T01:44:06.361Z,91.90
2023-10-07T01:46:36.321Z,91.97
2023-10-07T01:49:13.989Z,91.63
2023-10-07T01:51:45.878Z,91.65
2023-10-07T01:54:13.614Z,91.65
2023-10-07T01:56:41.043Z,91.60
2023-10-07T01:59:15.470Z,91.97
2023-10-07T02:02:00.184Z,91.74
2023-10-07T02:04:28.889Z,92.11
2023-10-07T02:06:57.726Z,92.16
2023-10-07T02:09:29.251Z,92.11
2023-10-07T02:12:13.148Z,92.11
2023-10-07T02:14:40.616Z,92.27
2023-10-07T02:17:08.647Z,93.01
2023-10-07T02:19:36.080Z,93.07
2023-10-07T02:22:04.948Z,93.04
2023-10-07T02:24:33.404Z,93.48
2023-10-07T02:27:08.154Z,94.06
2023-10-07T02:29:36.044Z,94.41
2023-10-07T02:32:15.284Z,94.73
2023-10-07T02:34:56.486Z,94.37
2023-10-07T02:37:27.468Z,93.88
2023-10-07T02:39:57.738Z,94.12
2023-10-07T02:42:32.706Z,94.25
2023-10-07T02:45:21.689Z,94.14
2023-10-07T02:47:51.489Z,94.24
2023-10-07T02:50:19.561Z,94.12
2023-10-07T02:52:48.364Z,94.12
2023-10-07T02:55:19.472Z,94.38
2023-10-07T02:57:56.639Z,93.80
2023-10-07T03:00:36.444Z,94.31
2023-10-07T03:03:21.033Z,94.35
2023-10-07T03:05:58.687Z,94.63
2023-10-07T03:08:41.687Z,94.93
2023-10-07T03:11:13.383Z,94.64
2023-10-07T03:13:41.027Z,94.69
2023-10-07T03:16:29.182Z,94.88
2023-10-07T03:18:58.135Z,94.61
2023-10-07T03:21:36.829Z,94.26
2023-10-07T03:24:09.800Z,94.23
2023-10-07T03:26:41.969Z,94.45
2023-10-07T03:29:09.465Z,94.44
2023-10-07T03:31:40.049Z,94.75
2023-10-07T03:34:13.346Z,94.37
2023-10-07T03:37:09.764Z,94.53
2023-10-07T03:39:55.673Z,94.16
2023-10-07T03:42:24.118Z,92.88
2023-10-07T03:44:51.665Z,92.86
2023-10-07T03:47:19.100Z,93.16
2023-10-07T03:49:54.662Z,93.48
2023-10-07T03:52:22.444Z,93.56
2023-10-07T03:54:49.981Z,93.55
2023-10-07T03:57:17.375Z,94.01
2023-10-07T03:59:46.886Z,93.96
2023-10-07T04:02:30.393Z,94.59
2023-10-07T04:05:11.066Z,94.00
2023-10-07T04:07:38.751Z,94.25
2023-10-07T04:10:21.470Z,94.18
2023-10-07T04:12:50.842Z,93.88
2023-10-07T04:15:18.456Z,93.70
2023-10-07T04:17:46.627Z,93.89
2023-10-07T04:20:20.090Z,94.18
2023-10-07T04:23:02.322Z,93.86
2023-10-07T04:25:32.271Z,94.51
2023-10-07T04:28:00.575Z,95.38
2023-10-07T04:30:40.818Z,95.72
2023-10-07T04:33:10.231Z,95.01
2023-10-07T04:35:39.029Z,95.42
2023-10-07T04:38:26.601Z,94.99
2023-10-07T04:41:15.369Z,95.12
2023-10-07T04:43:45.693Z,94.53
2023-10-07T04:46:25.713Z,95.19
2023-10-07T04:48:57.346Z,94.76
2023-10-07T04:51:33.752Z,94.74
2023-10-07T04:54:01.158Z,94.24
2023-10-07T04:56:28.995Z,93.48
2023-10-07T04:58:56.556Z,93.78
2023-10-07T05:01:32.310Z,93.22
2023-10-07T05:04:09.755Z,93.85
2023-10-07T05:06:38.683Z,93.11
2023-10-07T05:09:11.007Z,92.64
2023-10-07T05:11:42.416Z,92.50
2023-10-07T05:14:11.804Z,92.19
2023-10-07T05:16:39.817Z,92.41
2023-10-07T05:19:10.903Z,92.07
2023-10-07T05:21:41.175Z,91.53
2023-10-07T05:24:11.820Z,91.23
2023-10-07T05:26:42.465Z,91.41
2023-10-07T05:29:14.385Z,91.04
2023-10-07T05:31:44.160Z,90.24
2023-10-07T05:34:12.176Z,89.84
2023-10-07T05:36:40.316Z,88.88
2023-10-07T05:39:09.332Z,87.84
2023-10-07T05:41:40.704Z,87.60
2023-10-07T05:44:10.956Z,87.56
2023-10-07T05:46:38.673Z,86.81
2023-10-07T05:49:07.718Z,86.28
2023-10-07T05:51:37.532Z,85.47
2023-10-07T05:54:06.453Z,84.61
2023-10-07T05:56:33.805Z,84.24
2023-10-07T05:59:03.140Z,83.41
2023-10-07T06:01:35.227Z,82.87
2023-10-07T06:04:02.861Z,81.97
2023-10-07T06:06:32.997Z,81.48
2023-10-07T06:09:04.646Z,80.83
2023-10-07T06:11:33.394Z,79.96
2023-10-07T06:14:00.811Z,79.57
2023-10-07T06:16:30.787Z,79.42
2023-10-07T06:18:59.796Z,78.79
2023-10-07T06:21:29.105Z,77.96
2023-10-07T06:24:00.274Z,77.53
2023-10-07T06:26:31.664Z,76.08
2023-10-07T06:29:07.516Z,76.27
2023-10-07T06:31:35.395Z,76.11
2023-10-07T06:34:13.861Z,76.04
2023-10-07T06:36:41.782Z,75.42
2023-10-07T06:39:09.443Z,76.89
2023-10-07T06:41:36.926Z,76.11
2023-10-07T06:44:04.525Z,76.72
2023-10-07T06:46:41.861Z,76.97
2023-10-07T06:49:20.979Z,77.28
2023-10-07T06:51:52.585Z,76.69
2023-10-07T06:54:20.835Z,76.57
2023-10-07T06:56:51.339Z,76.24
2023-10-07T06:59:19.508Z,76.09
2023-10-07T07:01:46.978Z,76.25
2023-10-07T07:04:20.247Z,76.11
2023-10-07T07:06:58.651Z,75.99
2023-10-07T07:09:44.854Z,76.28
2023-10-07T07:12:13.484Z,74.96
2023-10-07T07:14:47.743Z,74.72
2023-10-07T07:17:31.016Z,74.51
2023-10-07T07:20:13.322Z,73.93
2023-10-07T07:22:47.824Z,73.05
2023-10-07T07:25:39.400Z,72.85
2023-10-07T07:28:07.913Z,72.23
2023-10-07T07:30:36.717Z,71.79
2023-10-07T07:33:16.604Z,71.83
2023-10-07T07:35:52.533Z,71.39
2023-10-07T07:38:24.081Z,70.68
2023-10-07T07:40:53.750Z,70.15
2023-10-07T07:43:21.394Z,70.64
2023-10-07T07:45:57.506Z,70.12
2023-10-07T07:48:26.705Z,69.88
2023-10-07T07:50:55.434Z,69.88
2023-10-07T07:53:22.885Z,69.75
2023-10-07T07:55:56.319Z,69.37
2023-10-07T07:58:24.505Z,69.60
2023-10-07T08:01:00.348Z,69.29
2023-10-07T08:03:27.974Z,68.93
2023-10-07T08:05:55.468Z,69.10
2023-10-07T08:08:30.216Z,68.75
2023-10-07T08:10:58.450Z,67.81
2023-10-07T08:13:26.064Z,67.15
2023-10-07T08:15:53.450Z,66.91
2023-10-07T08:18:30.242Z,65.75
2023-10-07T08:20:59.473Z,65.37
2023-10-07T08:23:30.757Z,66.10
2023-10-07T08:26:10.449Z,66.27
2023-10-07T08:28:41.650Z,66.74
2023-10-07T08:31:21.914Z,66.39
2023-10-07T08:33:55.206Z,66.67
2023-10-07T08:36:30.433Z,66.54
2023-10-07T08:39:00.350Z,65.64
2023-10-07T08:41:28.242Z,64.49
2023-10-07T08:44:16.821Z,63.56
2023-10-07T08:46:54.620Z,61.94
2023-10-07T08:49:28.424Z,61.97
2023-10-07T08:51:56.679Z,61.55
2023-10-07T08:54:27.865Z,60.83
2023-10-07T08:57:10.255Z,59.84
2023-10-07T08:59:38.433Z,58.88
2023-10-07T09:02:05.897Z,57.65
2023-10-07T09:04:33.472Z,56.88
2023-10-07T09:07:01.490Z,55.64
2023-10-07T09:09:33.989Z,55.40
2023-10-07T09:12:09.291Z,54.46
2023-10-07T09:14:36.677Z,54.66
2023-10-07T09:17:06.003Z,54.29
2023-10-07T09:19:35.557Z,53.98
2023-10-07T09:22:11.721Z,53.47
2023-10-07T09:24:45.158Z,53.43
2023-10-07T09:27:14.332Z,53.57
2023-10-07T09:29:45.655Z,52.65
2023-10-07T09:32:18.210Z,52.04
2023-10-07T09:34:45.542Z,51.54
2023-10-07T09:37:14.760Z,50.52
2023-10-07T09:39:46.043Z,50.94
2023-10-07T09:42:27.541Z,53.15
2023-10-07T09:45:16.815Z,52.08
2023-10-07T09:47:48.137Z,51.82
2023-10-07T09:50:25.176Z,51.17
2023-10-07T09:53:16.312Z,50.51
2023-10-07T09:55:58.508Z,50.83
2023-10-07T09:58:38.053Z,51.75
2023-10-07T10:01:29.748Z,51.87
2023-10-07T10:04:13.034Z,50.80
2023-10-07T10:07:01.701Z,50.39
2023-10-07T10:09:29.151Z,50.36
2023-10-07T10:12:19.399Z,49.25
2023-10-07T10:15:18.783Z,48.81
2023-10-07T10:17:54.501Z,48.42
2023-10-07T10:20:28.992Z,47.64
2023-10-07T10:23:00.707Z,47.00
2023-10-07T10:25:37.482Z,46.74
2023-10-07T10:28:05.143Z,45.92
2023-10-07T10:30:32.489Z,46.35
2023-10-07T10:33:01.959Z,45.36
2023-10-07T10:35:30.379Z,44.48
2023-10-07T10:37:58.333Z,43.67
2023-10-07T10:40:29.081Z,44.52
2023-10-07T10:42:56.404Z,43.46
2023-10-07T10:45:26.209Z,43.05
2023-10-07T10:47:54.627Z,42.42
2023-10-07T10:50:24.971Z,41.31
2023-10-07T10:52:55.429Z,41.36
2023-10-07T10:55:26.739Z,40.50
2023-10-07T10:57:54.103Z,40.28
2023-10-07T11:00:22.988Z,40.27
2023-10-07T11:02:50.978Z,40.62
2023-10-07T11:05:18.629Z,40.56
2023-10-07T11:07:48.220Z,40.64
2023-10-07T11:10:24.406Z,40.69
2023-10-07T11:12:55.797Z,40.21
2023-10-07T11:15:26.260Z,40.79
2023-10-07T11:17:59.651Z,40.16
2023-10-07T11:20:34.496Z,40.02
2023-10-07T11:23:04.076Z,39.24
2023-10-07T11:25:31.495Z,39.14
2023-10-07T11:27:59.976Z,38.76
2023-10-07T11:30:27.388Z,39.20
2023-10-07T11:32:56.121Z,39.32
2023-10-07T11:35:29.239Z,39.08
2023-10-07T11:37:59.802Z,39.82
2023-10-07T11:40:28.696Z,41.09
2023-10-07T11:42:57.781Z,41.61
2023-10-07T11:45:27.855Z,43.72
2023-10-07T11:47:58.492Z,42.56
2023-10-07T11:50:30.485Z,42.60
2023-10-07T11:52:58.278Z,42.41
2023-10-07T11:55:28.753Z,43.34
2023-10-07T11:57:56.080Z,43.96
2023-10-07T12:00:30.551Z,45.00
2023-10-07T12:03:01.499Z,45.54
2023-10-07T12:05:29.439Z,46.08
2023-10-07T12:07:57.544Z,46.07
2023-10-07T12:10:24.880Z,45.67
2023-10-07T12:12:53.294Z,45.11
2023-10-07T12:15:22.318Z,44.70
2023-10-07T12:17:52.467Z,44.34
2023-10-07T12:20:24.037Z,43.54
2023-10-07T12:22:54.301Z,43.91
2023-10-07T12:25:22.883Z,43.81
2023-10-07T12:27:50.717Z,43.86
2023-10-07T12:30:24.153Z,43.47
2023-10-07T12:32:51.560Z,44.30
2023-10-07T12:35:19.814Z,43.76
2023-10-07T12:37:50.097Z,43.33
2023-10-07T12:40:21.534Z,43.82
2023-10-07T12:42:53.389Z,43.04
2023-10-07T12:45:20.976Z,42.80
2023-10-07T12:47:52.768Z,43.68
2023-10-07T12:50:21.966Z,43.40
2023-10-07T12:52:50.064Z,42.94
2023-10-07T12:55:17.640Z,42.66
2023-10-07T12:57:45.379Z,42.19
2023-10-07T13:00:33.229Z,42.04
2023-10-07T13:03:03.472Z,42.11
2023-10-07T13:05:34.099Z,41.55
2023-10-07T13:08:01.419Z,41.29
2023-10-07T13:10:30.651Z,41.68
2023-10-07T13:12:59.292Z,41.39
2023-10-07T13:15:35.220Z,41.02
2023-10-07T13:18:03.854Z,41.08
2023-10-07T13:20:31.815Z,40.76
2023-10-07T13:22:59.517Z,40.96
2023-10-07T13:25:27.649Z,41.28
2023-10-07T13:27:59.177Z,41.05
2023-10-07T13:30:26.476Z,41.03
2023-10-07T13:32:58.250Z,40.84
2023-10-07T13:35:28.875Z,41.06
2023-10-07T13:37:58.216Z,41.26
2023-10-07T13:40:25.589Z,40.86
2023-10-07T13:42:54.079Z,40.48
2023-10-07T13:45:25.024Z,40.67
2023-10-07T13:47:52.952Z,40.64
2023-10-07T13:50:26.852Z,40.63
2023-10-07T13:53:00.580Z,40.85
2023-10-07T13:55:55.682Z,41.22
2023-10-07T13:58:23.127Z,40.95
2023-10-07T14:00:53.410Z,40.35
2023-10-07T14:03:22.324Z,39.83
2023-10-07T14:05:52.180Z,38.77
2023-10-07T14:08:25.294Z,37.34
2023-10-07T14:10:53.760Z,37.07
2023-10-07T14:13:21.253Z,37.07
2023-10-07T14:15:51.558Z,36.30
2023-10-07T14:18:22.852Z,38.06
2023-10-07T14:20:57.576Z,40.52
2023-10-07T14:23:25.590Z,42.06
2023-10-07T14:25:54.218Z,43.55
2023-10-07T14:28:22.229Z,44.13
2023-10-07T14:30:50.360Z,44.82
2023-10-07T14:33:18.127Z,44.79
2023-10-07T14:35:46.425Z,44.98
2023-10-07T14:38:14.199Z,45.34
2023-10-07T14:40:51.928Z,46.84
2023-10-07T14:43:20.245Z,45.82
2023-10-07T14:45:48.535Z,46.18
2023-10-07T14:48:17.210Z,46.45
2023-10-07T14:50:44.749Z,47.10
2023-10-07T14:53:14.881Z,46.40
2023-10-07T14:55:45.861Z,46.11
2023-10-07T14:58:16.413Z,47.20
2023-10-07T15:00:47.541Z,47.19
2023-10-07T15:03:18.170Z,47.98
2023-10-07T15:05:45.716Z,48.74
2023-10-07T15:08:14.428Z,49.12
2023-10-07T15:10:45.416Z,49.42
2023-10-07T15:13:13.009Z,49.84
2023-10-07T15:15:40.892Z,49.82
2023-10-07T15:18:08.250Z,50.20
2023-10-07T15:20:35.773Z,50.61
2023-10-07T15:23:03.586Z,50.79
2023-10-07T15:25:32.226Z,51.47
2023-10-07T15:27:59.588Z,51.96
2023-10-07T15:30:29.686Z,52.58
2023-10-07T15:32:57.029Z,52.48
2023-10-07T15:35:24.586Z,52.88
2023-10-07T15:37:52.812Z,53.50
2023-10-07T15:40:20.126Z,53.69
2023-10-07T15:42:50.055Z,53.98
2023-10-07T15:45:17.410Z,54.97
2023-10-07T15:47:45.042Z,55.22
2023-10-07T15:50:12.501Z,55.84
2023-10-07T15:52:41.071Z,57.06
2023-10-07T15:55:08.718Z,55.25
2023-10-07T15:57:36.185Z,56.12
2023-10-07T16:00:13.538Z,56.51
2023-10-07T16:02:41.196Z,55.53
2023-10-07T16:05:09.061Z,55.40
2023-10-07T16:07:39.545Z,54.99
2023-10-07T16:10:14.039Z,55.34
2023-10-07T16:12:42.832Z,55.09
2023-10-07T16:15:10.655Z,55.25
2023-10-07T16:17:41.561Z,55.68
2023-10-07T16:20:11.282Z,56.25
2023-10-07T16:22:38.893Z,56.02
2023-10-07T16:25:09.959Z,56.61
2023-10-07T16:27:37.309Z,56.74
2023-10-07T16:30:06.945Z,57.02
2023-10-07T16:32:34.687Z,57.62
2023-10-07T16:35:04.915Z,58.91
2023-10-07T16:37:33.267Z,59.60
2023-10-07T16:40:00.576Z,60.25
2023-10-07T16:42:29.452Z,60.42
2023-10-07T16:44:57.056Z,60.27
2023-10-07T16:47:24.670Z,60.37
2023-10-07T16:49:52.132Z,60.18
2023-10-07T16:52:20.001Z,60.59
2023-10-07T16:54:47.303Z,60.68
2023-10-07T16:57:14.746Z,61.26
2023-10-07T16:59:42.271Z,61.32
2023-10-07T17:02:11.889Z,61.73
2023-10-07T17:04:40.613Z,62.23
2023-10-07T17:07:07.987Z,61.72
2023-10-07T17:09:35.702Z,61.58
2023-10-07T17:12:03.206Z,61.01
2023-10-07T17:14:33.078Z,61.22
2023-10-07T17:17:00.716Z,60.66
2023-10-07T17:19:29.286Z,60.39
2023-10-07T17:21:56.649Z,60.33
2023-10-07T17:24:24.040Z,60.04
2023-10-07T17:26:51.808Z,59.55
2023-10-07T17:29:19.171Z,59.27
2023-10-07T17:31:46.531Z,58.45
2023-10-07T17:34:13.872Z,58.21
2023-10-07T17:36:41.179Z,57.46
2023-10-07T17:39:12.515Z,57.41
2023-10-07T17:41:40.287Z,57.35
2023-10-07T17:44:09.499Z,57.45
2023-10-07T17:46:36.892Z,57.12
2023-10-07T17:49:04.204Z,56.18
2023-10-07T17:51:31.498Z,56.92
2023-10-07T17:53:58.893Z,56.20
2023-10-07T17:56:26.372Z,56.14
2023-10-07T17:58:53.745Z,55.63
2023-10-07T18:01:21.031Z,54.57
2023-10-07T18:03:49.124Z,53.98
2023-10-07T18:06:16.481Z,53.65
2023-10-07T18:08:44.520Z,53.92
2023-10-07T18:11:12.799Z,53.15
2023-10-07T18:13:40.243Z,54.79
2023-10-07T18:16:08.484Z,54.15
2023-10-07T18:18:38.270Z,54.21
2023-10-07T18:21:07.169Z,53.42
2023-10-07T18:23:38.077Z,51.94
2023-10-07T18:26:05.557Z,51.31
2023-10-07T18:28:33.049Z,51.13
2023-10-07T18:31:02.628Z,50.42
2023-10-07T18:33:30.410Z,50.37
2023-10-07T18:35:58.856Z,50.48
2023-10-07T18:38:26.859Z,49.72
2023-10-07T18:40:54.192Z,49.13
2023-10-07T18:43:21.468Z,49.21
2023-10-07T18:45:53.481Z,48.63
2023-10-07T18:48:20.863Z,48.21
2023-10-07T18:50:49.324Z,47.47
2023-10-07T18:53:16.783Z,46.92
2023-10-07T18:55:44.089Z,47.27
2023-10-07T18:58:13.604Z,47.20
2023-10-07T19:00:40.916Z,46.34
2023-10-07T19:03:08.412Z,46.44
2023-10-07T19:05:35.909Z,47.16
2023-10-07T19:08:03.357Z,47.28
2023-10-07T19:10:31.414Z,45.32
2023-10-07T19:13:00.205Z,44.54
2023-10-07T19:15:28.604Z,44.95
2023-10-07T19:17:56.161Z,44.31
2023-10-07T19:20:24.790Z,45.15
2023-10-07T19:22:52.211Z,44.63
2023-10-07T19:25:19.581Z,44.66
2023-10-07T19:27:46.968Z,45.43
2023-10-07T19:30:15.262Z,45.32
2023-10-07T19:32:43.427Z,46.12
2023-10-07T19:35:11.782Z,46.39
2023-10-07T19:37:39.877Z,45.88
2023-10-07T19:40:08.064Z,46.63
2023-10-07T19:42:35.441Z,45.64
2023-10-07T19:45:02.829Z,45.84
2023-10-07T19:47:30.235Z,45.59
2023-10-07T19:49:57.651Z,46.30
2023-10-07T19:52:24.969Z,46.20
2023-10-07T19:54:53.499Z,46.46
2023-10-07T19:57:21.264Z,46.61
2023-10-07T19:59:48.909Z,46.36
2023-10-07T20:02:17.279Z,47.17
2023-10-07T20:04:45.753Z,44.76
2023-10-07T20:07:14.709Z,44.89
2023-10-07T20:09:42.181Z,44.31
2023-10-07T20:12:10.513Z,44.54
2023-10-07T20:14:37.957Z,45.41
2023-10-07T20:17:05.631Z,45.88
2023-10-07T20:19:33.122Z,45.80
2023-10-07T20:22:00.438Z,46.56
2023-10-07T20:24:27.791Z,46.26
2023-10-07T20:26:55.313Z,46.00
2023-10-07T20:29:22.664Z,46.63
2023-10-07T20:31:50.034Z,44.42
2023-10-07T20:34:17.823Z,45.26
2023-10-07T20:36:45.090Z,44.31
2023-10-07T20:39:12.796Z,44.03
2023-10-07T20:41:41.795Z,44.14
2023-10-07T20:44:09.340Z,44.19
2023-10-07T20:46:36.940Z,45.43
2023-10-07T20:49:04.854Z,46.52
2023-10-07T20:51:32.167Z,47.13
2023-10-07T20:54:00.802Z,47.73
2023-10-07T20:56:28.495Z,47.98
2023-10-07T20:58:55.870Z,46.76
2023-10-07T21:01:24.963Z,46.57
2023-10-07T21:03:53.888Z,47.64
2023-10-07T21:06:21.834Z,45.41
2023-10-07T21:08:51.475Z,46.24
2023-10-07T21:11:22.271Z,45.85
2023-10-07T21:13:49.994Z,45.54
2023-10-07T21:16:17.501Z,45.14
2023-10-07T21:18:46.076Z,45.22
2023-10-07T21:21:14.049Z,45.13
2023-10-07T21:23:44.563Z,45.37
2023-10-07T21:26:17.820Z,45.18
2023-10-07T21:28:45.365Z,44.90
2023-10-07T21:31:12.760Z,44.72
2023-10-07T21:33:40.051Z,45.04
2023-10-07T21:36:07.947Z,44.74
2023-10-07T21:38:36.119Z,44.88
2023-10-07T21:41:03.828Z,44.76
2023-10-07T21:43:31.275Z,45.10
2023-10-07T21:46:00.035Z,44.65
2023-10-07T21:48:27.547Z,44.61
2023-10-07T21:50:55.254Z,44.35
2023-10-07T21:53:23.260Z,44.36
2023-10-07T21:55:50.583Z,43.90
2023-10-07T21:58:17.902Z,44.13
2023-10-07T22:00:47.209Z,44.65
2023-10-07T22:03:17.761Z,44.36
2023-10-07T22:05:47.816Z,44.17
2023-10-07T22:08:15.976Z,44.20
2023-10-07T22:10:45.488Z,44.08
2023-10-07T22:13:18.972Z,44.21
2023-10-07T22:15:53.232Z,44.09
2023-10-07T22:18:20.968Z,44.53
2023-10-07T22:20:50.910Z,44.06
2023-10-07T22:23:20.731Z,44.32
2023-10-07T22:25:51.991Z,44.12
2023-10-07T22:28:22.664Z,44.39
2023-10-07T22:30:56.877Z,44.56
2023-10-07T22:33:26.475Z,45.04
2023-10-07T22:36:00.829Z,44.82
2023-10-07T22:38:28.340Z,44.51
2023-10-07T22:40:59.734Z,44.78
2023-10-07T22:43:36.140Z,45.01
2023-10-07T22:46:05.260Z,44.95
2023-10-07T22:48:36.523Z,44.81
2023-10-07T22:51:24.592Z,45.04
2023-10-07T22:54:02.317Z,44.93
2023-10-07T22:56:32.834Z,45.08
2023-10-07T22:59:05.871Z,44.93
2023-10-07T23:01:36.845Z,45.10
2023-10-07T23:04:34.005Z,45.35
2023-10-07T23:07:01.720Z,45.30
2023-10-07T23:09:37.477Z,45.80
2023-10-07T23:12:16.366Z,45.85
2023-10-07T23:14:46.148Z,46.55
2023-10-07T23:17:23.085Z,46.30
2023-10-07T23:19:51.875Z,46.22
2023-10-07T23:22:21.975Z,46.12
2023-10-07T23:24:53.605Z,46.18
2023-10-07T23:27:24.033Z,46.42
2023-10-07T23:29:56.355Z,46.49
2023-10-07T23:32:23.929Z,46.93
2023-10-07T23:34:54.795Z,46.43
2023-10-07T23:37:25.900Z,46.70
2023-10-07T23:39:58.618Z,46.98
2023-10-07T23:42:26.575Z,47.24
2023-10-07T23:44:57.573Z,47.22
2023-10-07T23:47:25.074Z,47.35
2023-10-07T23:49:56.053Z,47.66
2023-10-07T23:52:26.744Z,47.85
2023-10-07T23:55:00.292Z,48.07
2023-10-07T23:57:31.230Z,48.42
2023-10-07T23:59:59.191Z,48.54
